sensor_id;sensor_type;location;lat;lon;timestamp;P1;durP1;ratioP1;P2;durP2;ratioP2
5195;SDS011;2617;51.006;12.436;2023-08-24T00:01:02;6.00;;;5.50;;
5195;SDS011;2617;51.006;12.436;2023-08-24T00:06:05;11.60;;;5.57;;
5195;SDS011;2617;51.006;12.436;2023-08-24T00:11:08;6.25;;;5.65;;
5195;SDS011;2617;51.006;12.436;2023-08-24T00:16:10;6.63;;;6.03;;
5195;SDS011;2617;51.006;12.436;2023-08-24T00:21:14;7.40;;;5.70;;
5195;SDS011;2617;51.006;12.436;2023-08-24T00:26:18;7.20;;;5.80;;
5195;SDS011;2617;51.006;12.436;2023-08-24T00:31:20;6.60;;;5.47;;
5195;SDS011;2617;51.006;12.436;2023-08-24T00:36:22;9.53;;;6.57;;
5195;SDS011;2617;51.006;12.436;2023-08-24T00:41:25;6.90;;;6.17;;
5195;SDS011;2617;51.006;12.436;2023-08-24T00:46:27;9.50;;;6.67;;
5195;SDS011;2617;51.006;12.436;2023-08-24T00:51:30;9.90;;;6.43;;
5195;SDS011;2617;51.006;12.436;2023-08-24T00:56:32;6.33;;;5.73;;
5195;SDS011;2617;51.006;12.436;2023-08-24T01:01:35;8.60;;;6.30;;
5195;SDS011;2617;51.006;12.436;2023-08-24T01:06:38;7.30;;;6.60;;
5195;SDS011;2617;51.006;12.436;2023-08-24T01:11:45;10.10;;;6.57;;
5195;SDS011;2617;51.006;12.436;2023-08-24T01:16:47;7.43;;;6.77;;
5195;SDS011;2617;51.006;12.436;2023-08-24T01:21:49;9.83;;;8.13;;
5195;SDS011;2617;51.006;12.436;2023-08-24T01:26:52;9.90;;;7.67;;
5195;SDS011;2617;51.006;12.436;2023-08-24T01:31:54;11.38;;;6.90;;
5195;SDS011;2617;51.006;12.436;2023-08-24T01:36:58;11.43;;;7.33;;
5195;SDS011;2617;51.006;12.436;2023-08-24T01:42:00;11.30;;;8.10;;
5195;SDS011;2617;51.006;12.436;2023-08-24T01:47:03;8.57;;;7.77;;
5195;SDS011;2617;51.006;12.436;2023-08-24T01:52:06;8.30;;;7.50;;
5195;SDS011;2617;51.006;12.436;2023-08-24T01:57:09;9.73;;;7.70;;
5195;SDS011;2617;51.006;12.436;2023-08-24T02:02:11;9.00;;;7.50;;
5195;SDS011;2617;51.006;12.436;2023-08-24T02:07:14;8.88;;;7.87;;
5195;SDS011;2617;51.006;12.436;2023-08-24T02:12:16;8.82;;;7.40;;
5195;SDS011;2617;51.006;12.436;2023-08-24T02:17:19;9.73;;;6.70;;
5195;SDS011;2617;51.006;12.436;2023-08-24T02:22:21;12.20;;;7.65;;
5195;SDS011;2617;51.006;12.436;2023-08-24T02:27:24;8.67;;;7.87;;
5195;SDS011;2617;51.006;12.436;2023-08-24T02:32:27;9.35;;;7.95;;
5195;SDS011;2617;51.006;12.436;2023-08-24T02:37:29;9.03;;;7.63;;
5195;SDS011;2617;51.006;12.436;2023-08-24T02:42:32;7.87;;;7.17;;
5195;SDS011;2617;51.006;12.436;2023-08-24T02:47:34;9.20;;;8.00;;
5195;SDS011;2617;51.006;12.436;2023-08-24T02:52:37;12.03;;;8.10;;
5195;SDS011;2617;51.006;12.436;2023-08-24T02:57:40;10.73;;;8.23;;
5195;SDS011;2617;51.006;12.436;2023-08-24T03:02:42;13.53;;;8.27;;
5195;SDS011;2617;51.006;12.436;2023-08-24T03:07:44;8.70;;;7.83;;
5195;SDS011;2617;51.006;12.436;2023-08-24T03:12:47;15.00;;;7.82;;
5195;SDS011;2617;51.006;12.436;2023-08-24T03:17:51;8.77;;;7.90;;
5195;SDS011;2617;51.006;12.436;2023-08-24T03:22:53;10.67;;;8.20;;
5195;SDS011;2617;51.006;12.436;2023-08-24T03:27:55;9.93;;;7.80;;
5195;SDS011;2617;51.006;12.436;2023-08-24T03:32:58;8.53;;;7.30;;
5195;SDS011;2617;51.006;12.436;2023-08-24T03:38:00;8.17;;;7.37;;
5195;SDS011;2617;51.006;12.436;2023-08-24T03:43:04;7.20;;;6.50;;
5195;SDS011;2617;51.006;12.436;2023-08-24T03:48:07;10.10;;;7.30;;
5195;SDS011;2617;51.006;12.436;2023-08-24T03:53:10;9.93;;;7.30;;
5195;SDS011;2617;51.006;12.436;2023-08-24T03:58:12;10.20;;;7.20;;
5195;SDS011;2617;51.006;12.436;2023-08-24T04:03:15;9.50;;;6.97;;
5195;SDS011;2617;51.006;12.436;2023-08-24T04:08:17;8.80;;;7.90;;
5195;SDS011;2617;51.006;12.436;2023-08-24T04:13:20;9.97;;;7.40;;
5195;SDS011;2617;51.006;12.436;2023-08-24T04:18:22;16.93;;;8.20;;
5195;SDS011;2617;51.006;12.436;2023-08-24T04:23:25;11.83;;;7.63;;
5195;SDS011;2617;51.006;12.436;2023-08-24T04:28:27;14.03;;;7.70;;
5195;SDS011;2617;51.006;12.436;2023-08-24T04:33:29;8.20;;;7.27;;
5195;SDS011;2617;51.006;12.436;2023-08-24T04:38:32;9.00;;;8.20;;
5195;SDS011;2617;51.006;12.436;2023-08-24T04:43:34;9.00;;;7.43;;
5195;SDS011;2617;51.006;12.436;2023-08-24T04:48:37;8.27;;;7.00;;
5195;SDS011;2617;51.006;12.436;2023-08-24T04:53:41;8.22;;;5.72;;
5195;SDS011;2617;51.006;12.436;2023-08-24T04:58:51;6.83;;;5.47;;
5195;SDS011;2617;51.006;12.436;2023-08-24T05:04:02;6.00;;;5.30;;
5195;SDS011;2617;51.006;12.436;2023-08-24T05:09:04;9.33;;;5.40;;
5195;SDS011;2617;51.006;12.436;2023-08-24T05:14:07;5.33;;;4.83;;
5195;SDS011;2617;51.006;12.436;2023-08-24T05:19:09;8.10;;;5.30;;
5195;SDS011;2617;51.006;12.436;2023-08-24T05:24:12;9.30;;;4.83;;
5195;SDS011;2617;51.006;12.436;2023-08-24T05:29:15;5.63;;;5.13;;
5195;SDS011;2617;51.006;12.436;2023-08-24T05:34:17;9.63;;;5.53;;
5195;SDS011;2617;51.006;12.436;2023-08-24T05:39:20;7.67;;;5.73;;
5195;SDS011;2617;51.006;12.436;2023-08-24T05:44:22;5.90;;;5.40;;
5195;SDS011;2617;51.006;12.436;2023-08-24T05:49:24;9.03;;;5.93;;
5195;SDS011;2617;51.006;12.436;2023-08-24T05:54:27;8.43;;;5.77;;
5195;SDS011;2617;51.006;12.436;2023-08-24T05:59:30;5.87;;;5.37;;
5195;SDS011;2617;51.006;12.436;2023-08-24T06:04:33;11.53;;;5.70;;
5195;SDS011;2617;51.006;12.436;2023-08-24T06:09:36;6.27;;;5.60;;
5195;SDS011;2617;51.006;12.436;2023-08-24T06:14:39;7.40;;;5.77;;
5195;SDS011;2617;51.006;12.436;2023-08-24T06:19:43;11.23;;;6.27;;
5195;SDS011;2617;51.006;12.436;2023-08-24T06:24:45;6.93;;;6.23;;
5195;SDS011;2617;51.006;12.436;2023-08-24T06:29:48;6.40;;;5.80;;
5195;SDS011;2617;51.006;12.436;2023-08-24T06:34:50;11.10;;;5.93;;
5195;SDS011;2617;51.006;12.436;2023-08-24T06:39:53;8.50;;;6.50;;
5195;SDS011;2617;51.006;12.436;2023-08-24T06:44:55;7.73;;;5.30;;
5195;SDS011;2617;51.006;12.436;2023-08-24T06:49:58;14.10;;;5.70;;
5195;SDS011;2617;51.006;12.436;2023-08-24T06:55:22;7.00;;;5.63;;
5195;SDS011;2617;51.006;12.436;2023-08-24T07:00:24;6.80;;;5.17;;
5195;SDS011;2617;51.006;12.436;2023-08-24T07:05:26;5.43;;;4.93;;
5195;SDS011;2617;51.006;12.436;2023-08-24T07:10:28;7.20;;;5.60;;
5195;SDS011;2617;51.006;12.436;2023-08-24T07:15:29;5.80;;;4.97;;
5195;SDS011;2617;51.006;12.436;2023-08-24T07:20:32;8.03;;;5.07;;
5195;SDS011;2617;51.006;12.436;2023-08-24T07:25:35;5.77;;;5.10;;
5195;SDS011;2617;51.006;12.436;2023-08-24T07:30:36;7.07;;;4.85;;
5195;SDS011;2617;51.006;12.436;2023-08-24T07:35:38;7.43;;;5.33;;
5195;SDS011;2617;51.006;12.436;2023-08-24T07:40:41;5.60;;;4.87;;
5195;SDS011;2617;51.006;12.436;2023-08-24T07:45:43;7.50;;;4.90;;
5195;SDS011;2617;51.006;12.436;2023-08-24T07:50:44;15.93;;;5.30;;
5195;SDS011;2617;51.006;12.436;2023-08-24T07:55:46;9.07;;;5.10;;
5195;SDS011;2617;51.006;12.436;2023-08-24T08:00:49;11.98;;;5.62;;
5195;SDS011;2617;51.006;12.436;2023-08-24T08:05:52;7.40;;;4.43;;
5195;SDS011;2617;51.006;12.436;2023-08-24T08:10:58;7.77;;;4.97;;
5195;SDS011;2617;51.006;12.436;2023-08-24T08:16:05;5.90;;;4.80;;
5195;SDS011;2617;51.006;12.436;2023-08-24T08:21:09;4.70;;;4.20;;
5195;SDS011;2617;51.006;12.436;2023-08-24T08:26:11;6.87;;;4.40;;
5195;SDS011;2617;51.006;12.436;2023-08-24T08:31:13;8.90;;;4.70;;
5195;SDS011;2617;51.006;12.436;2023-08-24T08:36:15;6.50;;;4.40;;
5195;SDS011;2617;51.006;12.436;2023-08-24T08:41:17;5.80;;;3.90;;
5195;SDS011;2617;51.006;12.436;2023-08-24T08:46:19;5.27;;;3.87;;
5195;SDS011;2617;51.006;12.436;2023-08-24T08:51:21;6.23;;;3.80;;
5195;SDS011;2617;51.006;12.436;2023-08-24T08:56:23;7.68;;;3.90;;
5195;SDS011;2617;51.006;12.436;2023-08-24T09:01:24;4.57;;;4.00;;
5195;SDS011;2617;51.006;12.436;2023-08-24T09:06:27;4.40;;;4.00;;
5195;SDS011;2617;51.006;12.436;2023-08-24T09:11:30;4.20;;;3.80;;
5195;SDS011;2617;51.006;12.436;2023-08-24T09:16:32;5.13;;;3.03;;
5195;SDS011;2617;51.006;12.436;2023-08-24T09:21:36;6.10;;;3.67;;
5195;SDS011;2617;51.006;12.436;2023-08-24T09:26:36;9.83;;;4.00;;
5195;SDS011;2617;51.006;12.436;2023-08-24T09:31:37;6.73;;;3.60;;
5195;SDS011;2617;51.006;12.436;2023-08-24T09:36:39;4.67;;;3.60;;
5195;SDS011;2617;51.006;12.436;2023-08-24T09:41:43;7.70;;;3.40;;
5195;SDS011;2617;51.006;12.436;2023-08-24T09:46:44;3.60;;;3.30;;
5195;SDS011;2617;51.006;12.436;2023-08-24T09:51:46;5.10;;;3.67;;
5195;SDS011;2617;51.006;12.436;2023-08-24T09:56:48;5.23;;;3.10;;
5195;SDS011;2617;51.006;12.436;2023-08-24T10:01:50;3.77;;;3.10;;
5195;SDS011;2617;51.006;12.436;2023-08-24T10:06:52;4.50;;;3.33;;
5195;SDS011;2617;51.006;12.436;2023-08-24T10:11:56;12.27;;;3.30;;
5195;SDS011;2617;51.006;12.436;2023-08-24T10:16:56;6.15;;;3.30;;
5195;SDS011;2617;51.006;12.436;2023-08-24T10:21:59;5.93;;;2.97;;
5195;SDS011;2617;51.006;12.436;2023-08-24T10:27:02;3.35;;;3.05;;
5195;SDS011;2617;51.006;12.436;2023-08-24T10:32:04;5.20;;;3.30;;
5195;SDS011;2617;51.006;12.436;2023-08-24T10:37:08;6.53;;;3.50;;
5195;SDS011;2617;51.006;12.436;2023-08-24T10:42:11;4.73;;;3.20;;
5195;SDS011;2617;51.006;12.436;2023-08-24T10:47:14;5.73;;;3.03;;
5195;SDS011;2617;51.006;12.436;2023-08-24T10:52:19;8.67;;;3.53;;
5195;SDS011;2617;51.006;12.436;2023-08-24T10:57:21;4.43;;;3.28;;
5195;SDS011;2617;51.006;12.436;2023-08-24T11:02:24;6.10;;;3.60;;
5195;SDS011;2617;51.006;12.436;2023-08-24T11:07:26;5.47;;;3.20;;
5195;SDS011;2617;51.006;12.436;2023-08-24T11:12:28;5.60;;;2.90;;
5195;SDS011;2617;51.006;12.436;2023-08-24T11:17:30;6.85;;;3.55;;
5195;SDS011;2617;51.006;12.436;2023-08-24T11:22:32;7.93;;;4.03;;
5195;SDS011;2617;51.006;12.436;2023-08-24T11:27:34;6.80;;;3.50;;
5195;SDS011;2617;51.006;12.436;2023-08-24T11:32:36;11.87;;;3.10;;
5195;SDS011;2617;51.006;12.436;2023-08-24T11:37:39;8.00;;;3.33;;
5195;SDS011;2617;51.006;12.436;2023-08-24T11:42:41;11.70;;;4.10;;
5195;SDS011;2617;51.006;12.436;2023-08-24T11:47:42;3.73;;;3.53;;
5195;SDS011;2617;51.006;12.436;2023-08-24T11:52:45;3.40;;;3.10;;
5195;SDS011;2617;51.006;12.436;2023-08-24T11:57:47;4.30;;;3.47;;
5195;SDS011;2617;51.006;12.436;2023-08-24T12:02:49;3.93;;;3.47;;
5195;SDS011;2617;51.006;12.436;2023-08-24T12:07:51;8.30;;;3.40;;
5195;SDS011;2617;51.006;12.436;2023-08-24T12:18:08;3.47;;;3.28;;
5195;SDS011;2617;51.006;12.436;2023-08-24T12:23:12;4.00;;;3.50;;
5195;SDS011;2617;51.006;12.436;2023-08-24T12:28:15;3.90;;;3.27;;
5195;SDS011;2617;51.006;12.436;2023-08-24T12:33:21;4.00;;;3.10;;
5195;SDS011;2617;51.006;12.436;2023-08-24T12:38:23;3.97;;;3.17;;
5195;SDS011;2617;51.006;12.436;2023-08-24T12:43:25;5.00;;;2.93;;
5195;SDS011;2617;51.006;12.436;2023-08-24T12:48:26;5.93;;;3.10;;
5195;SDS011;2617;51.006;12.436;2023-08-24T12:53:28;4.00;;;3.30;;
5195;SDS011;2617;51.006;12.436;2023-08-24T12:58:30;3.43;;;3.13;;
5195;SDS011;2617;51.006;12.436;2023-08-24T13:03:32;3.12;;;2.83;;
5195;SDS011;2617;51.006;12.436;2023-08-24T13:08:35;2.80;;;2.60;;
5195;SDS011;2617;51.006;12.436;2023-08-24T13:13:36;8.40;;;3.00;;
5195;SDS011;2617;51.006;12.436;2023-08-24T13:18:38;8.53;;;3.77;;
5195;SDS011;2617;51.006;12.436;2023-08-24T13:23:40;3.80;;;3.10;;
5195;SDS011;2617;51.006;12.436;2023-08-24T13:28:42;4.13;;;2.57;;
5195;SDS011;2617;51.006;12.436;2023-08-24T13:33:44;5.90;;;2.87;;
5195;SDS011;2617;51.006;12.436;2023-08-24T13:38:46;4.10;;;3.20;;
5195;SDS011;2617;51.006;12.436;2023-08-24T13:43:48;8.83;;;2.93;;
5195;SDS011;2617;51.006;12.436;2023-08-24T13:48:50;5.70;;;2.90;;
5195;SDS011;2617;51.006;12.436;2023-08-24T13:53:52;3.25;;;2.95;;
5195;SDS011;2617;51.006;12.436;2023-08-24T13:58:54;7.23;;;3.57;;
5195;SDS011;2617;51.006;12.436;2023-08-24T14:03:56;5.87;;;2.67;;
5195;SDS011;2617;51.006;12.436;2023-08-24T14:08:59;4.95;;;3.35;;
5195;SDS011;2617;51.006;12.436;2023-08-24T14:14:01;3.50;;;2.73;;
5195;SDS011;2617;51.006;12.436;2023-08-24T14:19:02;4.73;;;3.20;;
5195;SDS011;2617;51.006;12.436;2023-08-24T14:24:04;5.80;;;2.87;;
5195;SDS011;2617;51.006;12.436;2023-08-24T14:29:06;3.37;;;3.07;;
5195;SDS011;2617;51.006;12.436;2023-08-24T14:34:09;3.87;;;3.40;;
5195;SDS011;2617;51.006;12.436;2023-08-24T14:39:10;5.90;;;3.00;;
5195;SDS011;2617;51.006;12.436;2023-08-24T14:44:12;3.33;;;3.00;;
5195;SDS011;2617;51.006;12.436;2023-08-24T14:49:14;8.33;;;4.23;;
5195;SDS011;2617;51.006;12.436;2023-08-24T14:54:16;4.23;;;3.10;;
5195;SDS011;2617;51.006;12.436;2023-08-24T14:59:18;5.82;;;3.55;;
5195;SDS011;2617;51.006;12.436;2023-08-24T15:04:20;10.00;;;3.70;;
5195;SDS011;2617;51.006;12.436;2023-08-24T15:09:22;7.33;;;3.10;;
5195;SDS011;2617;51.006;12.436;2023-08-24T15:14:27;3.87;;;3.00;;
5195;SDS011;2617;51.006;12.436;2023-08-24T15:19:26;6.53;;;3.47;;
5195;SDS011;2617;51.006;12.436;2023-08-24T15:24:28;3.30;;;3.00;;
5195;SDS011;2617;51.006;12.436;2023-08-24T15:29:30;5.47;;;2.97;;
5195;SDS011;2617;51.006;12.436;2023-08-24T15:34:32;6.70;;;3.60;;
5195;SDS011;2617;51.006;12.436;2023-08-24T15:39:36;4.70;;;3.10;;
5195;SDS011;2617;51.006;12.436;2023-08-24T15:44:39;4.80;;;3.60;;
5195;SDS011;2617;51.006;12.436;2023-08-24T15:49:41;3.57;;;3.27;;
5195;SDS011;2617;51.006;12.436;2023-08-24T15:54:43;3.77;;;2.83;;
5195;SDS011;2617;51.006;12.436;2023-08-24T15:59:44;3.13;;;2.83;;
5195;SDS011;2617;51.006;12.436;2023-08-24T16:04:46;11.13;;;3.27;;
5195;SDS011;2617;51.006;12.436;2023-08-24T16:09:49;5.03;;;3.63;;
5195;SDS011;2617;51.006;12.436;2023-08-24T16:14:52;4.90;;;3.37;;
5195;SDS011;2617;51.006;12.436;2023-08-24T16:19:53;4.80;;;3.58;;
5195;SDS011;2617;51.006;12.436;2023-08-24T16:24:55;3.77;;;3.43;;
5195;SDS011;2617;51.006;12.436;2023-08-24T16:29:57;7.60;;;3.27;;
5195;SDS011;2617;51.006;12.436;2023-08-24T16:34:59;5.82;;;2.87;;
5195;SDS011;2617;51.006;12.436;2023-08-24T16:40:01;3.47;;;3.17;;
5195;SDS011;2617;51.006;12.436;2023-08-24T16:45:03;6.83;;;3.50;;
5195;SDS011;2617;51.006;12.436;2023-08-24T16:50:06;3.40;;;3.10;;
5195;SDS011;2617;51.006;12.436;2023-08-24T16:55:08;8.17;;;3.47;;
5195;SDS011;2617;51.006;12.436;2023-08-24T17:00:10;4.80;;;3.20;;
5195;SDS011;2617;51.006;12.436;2023-08-24T17:05:13;7.70;;;3.60;;
5195;SDS011;2617;51.006;12.436;2023-08-24T17:10:15;4.43;;;3.37;;
5195;SDS011;2617;51.006;12.436;2023-08-24T17:15:16;4.80;;;3.50;;
5195;SDS011;2617;51.006;12.436;2023-08-24T17:20:19;4.53;;;3.83;;
5195;SDS011;2617;51.006;12.436;2023-08-24T17:25:21;4.60;;;3.20;;
5195;SDS011;2617;51.006;12.436;2023-08-24T17:30:23;14.10;;;3.83;;
5195;SDS011;2617;51.006;12.436;2023-08-24T17:35:25;4.60;;;3.50;;
5195;SDS011;2617;51.006;12.436;2023-08-24T17:40:27;4.57;;;3.55;;
5195;SDS011;2617;51.006;12.436;2023-08-24T17:45:28;4.17;;;3.73;;
5195;SDS011;2617;51.006;12.436;2023-08-24T17:50:30;7.72;;;4.37;;
5195;SDS011;2617;51.006;12.436;2023-08-24T17:55:33;11.48;;;4.40;;
5195;SDS011;2617;51.006;12.436;2023-08-24T18:00:36;7.37;;;3.70;;
5195;SDS011;2617;51.006;12.436;2023-08-24T18:05:37;9.80;;;4.10;;
5195;SDS011;2617;51.006;12.436;2023-08-24T18:10:39;5.07;;;3.90;;
5195;SDS011;2617;51.006;12.436;2023-08-24T18:15:42;4.40;;;4.00;;
5195;SDS011;2617;51.006;12.436;2023-08-24T18:20:45;9.97;;;4.70;;
5195;SDS011;2617;51.006;12.436;2023-08-24T18:25:46;11.70;;;4.80;;
5195;SDS011;2617;51.006;12.436;2023-08-24T18:30:49;9.77;;;3.87;;
5195;SDS011;2617;51.006;12.436;2023-08-24T18:35:52;7.25;;;4.37;;
5195;SDS011;2617;51.006;12.436;2023-08-24T18:40:54;6.00;;;3.50;;
5195;SDS011;2617;51.006;12.436;2023-08-24T18:45:57;5.00;;;4.50;;
5195;SDS011;2617;51.006;12.436;2023-08-24T18:50:59;9.17;;;4.20;;
5195;SDS011;2617;51.006;12.436;2023-08-24T18:56:01;13.23;;;4.55;;
5195;SDS011;2617;51.006;12.436;2023-08-24T19:01:03;4.47;;;4.07;;
5195;SDS011;2617;51.006;12.436;2023-08-24T19:06:05;4.53;;;4.10;;
5195;SDS011;2617;51.006;12.436;2023-08-24T19:11:06;4.60;;;4.20;;
5195;SDS011;2617;51.006;12.436;2023-08-24T19:16:08;6.23;;;4.70;;
5195;SDS011;2617;51.006;12.436;2023-08-24T19:21:10;6.55;;;4.07;;
5195;SDS011;2617;51.006;12.436;2023-08-24T19:26:12;5.10;;;4.70;;
5195;SDS011;2617;51.006;12.436;2023-08-24T19:31:14;5.60;;;4.53;;
5195;SDS011;2617;51.006;12.436;2023-08-24T19:36:16;7.87;;;6.00;;
5195;SDS011;2617;51.006;12.436;2023-08-24T19:41:18;6.60;;;5.33;;
5195;SDS011;2617;51.006;12.436;2023-08-24T19:46:20;10.10;;;7.70;;
5195;SDS011;2617;51.006;12.436;2023-08-24T19:51:22;16.08;;;8.55;;
5195;SDS011;2617;51.006;12.436;2023-08-24T19:56:25;16.20;;;7.90;;
5195;SDS011;2617;51.006;12.436;2023-08-24T20:01:28;8.27;;;6.53;;
5195;SDS011;2617;51.006;12.436;2023-08-24T20:06:29;6.50;;;5.50;;
5195;SDS011;2617;51.006;12.436;2023-08-24T20:11:31;7.03;;;4.65;;
5195;SDS011;2617;51.006;12.436;2023-08-24T20:16:33;11.02;;;5.12;;
5195;SDS011;2617;51.006;12.436;2023-08-24T20:21:34;9.38;;;5.15;;
5195;SDS011;2617;51.006;12.436;2023-08-24T20:26:36;6.60;;;5.50;;
5195;SDS011;2617;51.006;12.436;2023-08-24T20:31:38;9.10;;;5.57;;
5195;SDS011;2617;51.006;12.436;2023-08-24T20:36:41;6.12;;;4.45;;
5195;SDS011;2617;51.006;12.436;2023-08-24T20:41:46;5.10;;;4.60;;
5195;SDS011;2617;51.006;12.436;2023-08-24T20:46:46;9.67;;;5.20;;
5195;SDS011;2617;51.006;12.436;2023-08-24T20:51:48;5.70;;;5.20;;
5195;SDS011;2617;51.006;12.436;2023-08-24T20:56:50;7.73;;;5.23;;
5195;SDS011;2617;51.006;12.436;2023-08-24T21:01:53;9.27;;;5.20;;
5195;SDS011;2617;51.006;12.436;2023-08-24T21:06:55;13.70;;;5.60;;
5195;SDS011;2617;51.006;12.436;2023-08-24T21:11:57;16.70;;;7.53;;
5195;SDS011;2617;51.006;12.436;2023-08-24T21:16:59;7.00;;;5.17;;
5195;SDS011;2617;51.006;12.436;2023-08-24T21:22:00;10.47;;;5.70;;
5195;SDS011;2617;51.006;12.436;2023-08-24T21:27:02;8.82;;;5.47;;
5195;SDS011;2617;51.006;12.436;2023-08-24T21:32:06;8.55;;;5.47;;
5195;SDS011;2617;51.006;12.436;2023-08-24T21:37:08;8.83;;;6.00;;
5195;SDS011;2617;51.006;12.436;2023-08-24T21:42:10;8.50;;;5.60;;
5195;SDS011;2617;51.006;12.436;2023-08-24T21:47:13;6.33;;;5.07;;
5195;SDS011;2617;51.006;12.436;2023-08-24T21:52:16;12.10;;;5.70;;
5195;SDS011;2617;51.006;12.436;2023-08-24T21:57:19;9.87;;;6.03;;
5195;SDS011;2617;51.006;12.436;2023-08-24T22:02:21;11.07;;;5.60;;
5195;SDS011;2617;51.006;12.436;2023-08-24T22:07:23;6.10;;;5.10;;
5195;SDS011;2617;51.006;12.436;2023-08-24T22:12:25;6.70;;;6.00;;
5195;SDS011;2617;51.006;12.436;2023-08-24T22:17:27;10.90;;;5.87;;
5195;SDS011;2617;51.006;12.436;2023-08-24T22:22:29;11.07;;;5.57;;
5195;SDS011;2617;51.006;12.436;2023-08-24T22:27:31;5.60;;;5.20;;
5195;SDS011;2617;51.006;12.436;2023-08-24T22:32:33;6.23;;;5.30;;
5195;SDS011;2617;51.006;12.436;2023-08-24T22:37:34;7.47;;;5.75;;
5195;SDS011;2617;51.006;12.436;2023-08-24T22:42:36;7.37;;;4.85;;
5195;SDS011;2617;51.006;12.436;2023-08-24T22:47:39;6.00;;;5.40;;
5195;SDS011;2617;51.006;12.436;2023-08-24T22:52:40;7.23;;;5.00;;
5195;SDS011;2617;51.006;12.436;2023-08-24T22:57:42;8.27;;;5.77;;
5195;SDS011;2617;51.006;12.436;2023-08-24T23:02:44;7.73;;;5.70;;
5195;SDS011;2617;51.006;12.436;2023-08-24T23:07:47;8.40;;;5.70;;
5195;SDS011;2617;51.006;12.436;2023-08-24T23:12:48;9.33;;;5.80;;
5195;SDS011;2617;51.006;12.436;2023-08-24T23:17:50;12.00;;;6.03;;
5195;SDS011;2617;51.006;12.436;2023-08-24T23:22:53;6.33;;;4.80;;
5195;SDS011;2617;51.006;12.436;2023-08-24T23:27:56;6.78;;;5.20;;
5195;SDS011;2617;51.006;12.436;2023-08-24T23:32:58;8.60;;;5.07;;
5195;SDS011;2617;51.006;12.436;2023-08-24T23:38:00;5.20;;;4.50;;
5195;SDS011;2617;51.006;12.436;2023-08-24T23:43:02;6.37;;;4.17;;
5195;SDS011;2617;51.006;12.436;2023-08-24T23:48:05;5.07;;;4.57;;
5195;SDS011;2617;51.006;12.436;2023-08-24T23:53:07;6.33;;;4.90;;
5195;SDS011;2617;51.006;12.436;2023-08-24T23:58:08;6.20;;;4.53;;
